createdAt,value
2019-05-10T00:00:29.346Z,51.8
2019-05-10T00:01:30.683Z,51.5
2019-05-10T00:02:32.580Z,51.6
2019-05-10T00:03:34.484Z,51.7
2019-05-10T00:04:35.807Z,51.6
2019-05-10T00:05:37.703Z,51.8
2019-05-10T00:06:39.324Z,51.5
2019-05-10T00:07:40.395Z,51.5
2019-05-10T00:08:42.167Z,51.7
2019-05-10T00:09:44.062Z,51.5
2019-05-10T00:10:45.660Z,51.6
2019-05-10T00:11:50.054Z,51.5
2019-05-10T00:12:51.678Z,51.7
2019-05-10T00:13:53.300Z,51.6
2019-05-10T00:14:54.931Z,51.6
2019-05-10T00:15:56.829Z,51.5
2019-05-10T00:16:58.751Z,52
2019-05-10T00:18:00.382Z,51.6
2019-05-10T00:19:02.279Z,51.6
2019-05-10T00:20:04.171Z,51.7
2019-05-10T00:21:06.069Z,51.7
2019-05-10T00:22:07.691Z,51.6
2019-05-10T00:23:09.042Z,51.8
2019-05-10T00:24:10.939Z,51.6
2019-05-10T00:25:12.832Z,51.7
2019-05-10T00:26:14.739Z,51.6
2019-05-10T00:27:16.624Z,51.6
2019-05-10T00:28:18.522Z,51.5
2019-05-10T00:29:20.124Z,51.7
2019-05-10T00:30:27.905Z,51.7
2019-05-10T00:31:29.800Z,51.5
2019-05-10T00:32:31.698Z,51.8
2019-05-10T00:33:33.319Z,51.6
2019-05-10T00:34:35.218Z,51.5
2019-05-10T00:35:37.122Z,51.9
2019-05-10T00:36:39.019Z,51.6
2019-05-10T00:37:40.918Z,52
2019-05-10T00:38:42.542Z,51.7
2019-05-10T00:39:44.141Z,51.7
2019-05-10T00:40:45.765Z,51.7
2019-05-10T00:41:47.392Z,51.9
2019-05-10T00:42:49.286Z,51.8
2019-05-10T00:43:50.906Z,51.7
2019-05-10T00:44:52.823Z,52
2019-05-10T00:45:54.444Z,51.7
2019-05-10T00:46:56.345Z,51.7
2019-05-10T00:47:57.972Z,51.7
2019-05-10T00:48:59.868Z,51.6
2019-05-10T00:50:01.777Z,51.7
2019-05-10T00:51:03.666Z,51.7
2019-05-10T00:52:05.286Z,51.7
2019-05-10T00:53:07.191Z,51.8
2019-05-10T00:54:08.518Z,51.8
2019-05-10T00:55:19.666Z,51.8
2019-05-10T00:56:21.576Z,51.8
2019-05-10T00:57:23.180Z,51.8
2019-05-10T00:58:25.077Z,51.7
2019-05-10T00:59:26.462Z,51.8
2019-05-10T01:00:28.083Z,52.1
2019-05-10T01:01:29.980Z,51.7
2019-05-10T01:02:31.074Z,51.8
2019-05-10T01:03:32.694Z,51.7
2019-05-10T01:04:34.588Z,51.7
2019-05-10T01:05:36.544Z,51.8
2019-05-10T01:06:38.494Z,51.6
2019-05-10T01:07:40.106Z,51.8
2019-05-10T01:08:41.792Z,51.8
2019-05-10T01:09:43.750Z,51.8
2019-05-10T01:10:45.370Z,51.6
2019-05-10T01:11:47.266Z,51.8
2019-05-10T01:12:49.166Z,52.1
2019-05-10T01:13:51.061Z,51.7
2019-05-10T01:14:52.683Z,51.5
2019-05-10T01:15:54.590Z,51.5
2019-05-10T01:16:56.213Z,51.8
2019-05-10T01:17:58.102Z,51.5
2019-05-10T01:18:59.463Z,51.8
2019-05-10T01:20:01.411Z,51.6
2019-05-10T01:21:03.621Z,51.8
2019-05-10T01:22:05.242Z,51.7
2019-05-10T01:23:06.017Z,51.7
2019-05-10T01:24:07.693Z,51.8
2019-05-10T01:25:09.586Z,51.8
2019-05-10T01:26:11.186Z,51.7
2019-05-10T01:27:13.085Z,52
2019-05-10T01:28:14.712Z,51.7
2019-05-10T01:29:16.059Z,51.8
2019-05-10T01:30:17.657Z,51.8
2019-05-10T01:31:19.277Z,51.6
2019-05-10T01:32:21.172Z,51.8
2019-05-10T01:33:23.074Z,51.6
2019-05-10T01:34:24.693Z,51.5
2019-05-10T01:35:26.590Z,51.7
2019-05-10T01:36:28.485Z,51.6
2019-05-10T01:37:30.091Z,51.8
2019-05-10T01:38:31.709Z,51.8
2019-05-10T01:39:33.604Z,51.7
2019-05-10T01:40:35.226Z,51.8
2019-05-10T01:41:37.141Z,51.7
2019-05-10T01:42:39.037Z,52
2019-05-10T01:43:40.656Z,51.7
2019-05-10T01:44:42.572Z,51.7
2019-05-10T01:45:44.469Z,51.8
2019-05-10T01:46:46.364Z,51.6
2019-05-10T01:47:47.985Z,51.8
2019-05-10T01:48:49.595Z,51.7
2019-05-10T01:49:51.490Z,51.9
2019-05-10T01:50:53.157Z,51.7
2019-05-10T01:51:54.758Z,51.6
2019-05-10T01:52:56.663Z,51.8
2019-05-10T01:53:57.724Z,52.1
2019-05-10T01:54:59.619Z,51.8
2019-05-10T01:56:00.982Z,51.7
2019-05-10T01:57:02.877Z,51.7
2019-05-10T01:58:04.773Z,52
2019-05-10T01:59:06.412Z,51.6
2019-05-10T02:00:07.458Z,51.8
2019-05-10T02:01:09.355Z,51.8
2019-05-10T02:02:10.975Z,51.7
2019-05-10T02:03:12.574Z,51.7
2019-05-10T02:04:18.123Z,51.8
2019-05-10T02:05:19.844Z,51.7
2019-05-10T02:06:21.476Z,51.8
2019-05-10T02:07:23.373Z,51.8
2019-05-10T02:08:24.717Z,51.7
2019-05-10T02:09:26.316Z,51.7
2019-05-10T02:10:28.211Z,51.5
2019-05-10T02:11:30.107Z,51.8
2019-05-10T02:12:32.003Z,51.8
2019-05-10T02:13:33.898Z,51.8
2019-05-10T02:14:35.794Z,51.6
2019-05-10T02:15:37.691Z,51.5
2019-05-10T02:16:39.593Z,51.5
2019-05-10T02:17:41.496Z,51.5
2019-05-10T02:18:43.387Z,51.8
2019-05-10T02:19:45.012Z,51.6
2019-05-10T02:20:46.906Z,51.5
2019-05-10T02:21:47.973Z,51.5
2019-05-10T02:22:49.869Z,51.5
2019-05-10T02:23:51.478Z,51.6
2019-05-10T02:24:53.372Z,51.5
2019-05-10T02:26:10.126Z,51.4
2019-05-10T02:27:11.817Z,51.5
2019-05-10T02:28:13.712Z,51.5
2019-05-10T02:29:15.609Z,51.9
2019-05-10T02:30:17.229Z,51.6
2019-05-10T02:31:22.186Z,51.6
2019-05-10T02:32:23.868Z,51.5
2019-05-10T02:33:25.764Z,51.5
2019-05-10T02:34:27.383Z,51.5
2019-05-10T02:35:29.015Z,51.6
2019-05-10T02:36:30.932Z,51.6
2019-05-10T02:37:32.822Z,51.6
2019-05-10T02:38:34.713Z,51.5
2019-05-10T02:39:36.335Z,51.5
2019-05-10T02:40:38.239Z,52.2
2019-05-10T02:41:40.143Z,51.5
2019-05-10T02:42:42.047Z,51.5
2019-05-10T02:43:43.953Z,51.6
2019-05-10T02:44:45.312Z,51.4
2019-05-10T02:45:47.211Z,51.4
2019-05-10T02:46:48.832Z,51.6
2019-05-10T02:47:50.473Z,52.2
2019-05-10T02:48:52.373Z,51.9
2019-05-10T02:49:53.981Z,51.6
2019-05-10T02:50:55.587Z,51.9
2019-05-10T02:51:57.197Z,51.4
2019-05-10T02:52:59.093Z,52.2
2019-05-10T02:54:00.709Z,51.4
2019-05-10T02:55:02.375Z,51.5
2019-05-10T02:56:03.990Z,51.6
2019-05-10T02:57:05.610Z,51.5
2019-05-10T02:58:07.233Z,51.6
2019-05-10T02:59:08.963Z,51.6
2019-05-10T03:00:10.855Z,51.6
2019-05-10T03:01:12.205Z,51.5
2019-05-10T03:02:14.163Z,51.5
2019-05-10T03:03:16.065Z,51.6
2019-05-10T03:04:17.724Z,51.6
2019-05-10T03:05:19.050Z,51.5
2019-05-10T03:06:20.671Z,51.5
2019-05-10T03:07:22.571Z,51.5
2019-05-10T03:08:24.509Z,51.6
2019-05-10T03:09:25.834Z,51.5
2019-05-10T03:10:27.458Z,51.9
2019-05-10T03:11:29.081Z,51.5
2019-05-10T03:12:30.419Z,51.5
2019-05-10T03:13:32.039Z,52
2019-05-10T03:14:33.938Z,51.9
2019-05-10T03:15:35.557Z,51.4
2019-05-10T03:16:37.471Z,51.5
2019-05-10T03:17:39.491Z,51.6
2019-05-10T03:18:41.389Z,51.6
2019-05-10T03:19:43.285Z,51.6
2019-05-10T03:20:45.196Z,51.6
2019-05-10T03:21:47.082Z,51.7
2019-05-10T03:22:48.725Z,51.6
2019-05-10T03:23:50.773Z,51.4
2019-05-10T03:24:52.670Z,51.5
2019-05-10T03:25:54.297Z,51.4
2019-05-10T03:26:56.206Z,51.4
2019-05-10T03:27:58.107Z,51.5
2019-05-10T03:28:59.727Z,51.6
2019-05-10T03:30:01.668Z,51.5
2019-05-10T03:31:02.879Z,51.5
2019-05-10T03:32:04.535Z,51.5
2019-05-10T03:33:06.165Z,51.6
2019-05-10T03:34:07.768Z,51.4
2019-05-10T03:35:09.722Z,51.6
2019-05-10T03:36:11.503Z,51.7
2019-05-10T03:37:13.108Z,51.5
2019-05-10T03:38:14.723Z,51.6
2019-05-10T03:39:16.348Z,51.6
2019-05-10T03:40:17.978Z,51.6
2019-05-10T03:41:19.877Z,51.6
2019-05-10T03:42:21.780Z,51.6
2019-05-10T03:43:23.667Z,51.6
2019-05-10T03:44:25.290Z,51.6
2019-05-10T03:45:26.924Z,52.2
2019-05-10T03:46:28.823Z,51.6
2019-05-10T03:47:30.721Z,51.6
2019-05-10T03:48:32.337Z,51.5
2019-05-10T03:49:33.395Z,51.6
2019-05-10T03:50:35.109Z,51.6
2019-05-10T03:51:37.013Z,51.5
2019-05-10T03:52:38.902Z,51.5
2019-05-10T03:53:40.799Z,51.5
2019-05-10T03:54:42.695Z,51.8
2019-05-10T03:55:44.593Z,51.6
2019-05-10T03:56:45.942Z,51.6
2019-05-10T03:57:47.837Z,51.4
2019-05-10T03:58:49.462Z,51.8
2019-05-10T03:59:51.366Z,52
2019-05-10T04:00:53.078Z,52
2019-05-10T04:01:54.973Z,51.7
2019-05-10T04:02:56.869Z,51.9
2019-05-10T04:03:58.529Z,51.7
2019-05-10T04:05:00.221Z,51.7
2019-05-10T04:06:02.213Z,51.9
2019-05-10T04:07:04.123Z,51.5
2019-05-10T04:08:05.821Z,51.7
2019-05-10T04:09:07.715Z,51.7
2019-05-10T04:10:09.335Z,51.7
2019-05-10T04:11:11.030Z,51.7
2019-05-10T04:12:12.347Z,51.5
2019-05-10T04:13:14.241Z,51.5
2019-05-10T04:14:16.138Z,51.5
2019-05-10T04:15:17.859Z,51.2
2019-05-10T04:16:19.755Z,51.1
2019-05-10T04:17:21.655Z,51.3
2019-05-10T04:18:23.549Z,51.3
2019-05-10T04:19:25.171Z,51.2
2019-05-10T04:20:27.089Z,51
2019-05-10T04:21:28.688Z,51
2019-05-10T04:22:30.585Z,50.9
2019-05-10T04:23:31.915Z,51
2019-05-10T04:24:36.867Z,51.4
2019-05-10T04:25:38.763Z,51.1
2019-05-10T04:26:40.386Z,51.2
2019-05-10T04:27:42.280Z,50.9
2019-05-10T04:28:44.176Z,50.7
2019-05-10T04:29:46.082Z,50.8
2019-05-10T04:30:47.428Z,51.1
2019-05-10T04:31:49.049Z,51.1
2019-05-10T04:32:50.649Z,51.1
2019-05-10T04:33:52.552Z,50.6
2019-05-10T04:34:54.196Z,50.6
2019-05-10T04:35:55.521Z,50.5
2019-05-10T04:36:57.420Z,50.5
2019-05-10T04:37:59.042Z,50.3
2019-05-10T04:39:01.100Z,50.3
2019-05-10T04:40:02.997Z,50.4
2019-05-10T04:41:04.620Z,50.4
2019-05-10T04:42:06.513Z,50.2
2019-05-10T04:43:07.868Z,50.4
2019-05-10T04:44:09.466Z,50.4
2019-05-10T04:45:11.076Z,50.4
2019-05-10T04:46:13.059Z,50.5
2019-05-10T04:47:15.006Z,50.4
2019-05-10T04:48:16.636Z,50.3
2019-05-10T04:49:17.973Z,50.6
2019-05-10T04:50:19.315Z,50.1
2019-05-10T04:51:21.215Z,50.4
2019-05-10T04:52:23.108Z,50.2
2019-05-10T04:53:25.005Z,50.2
2019-05-10T04:54:26.905Z,50.1
2019-05-10T04:55:28.536Z,50.2
2019-05-10T04:56:30.435Z,50.2
2019-05-10T04:57:51.138Z,50
2019-05-10T04:58:53.242Z,50.1
2019-05-10T04:59:54.870Z,50
2019-05-10T05:00:56.766Z,49.7
2019-05-10T05:01:58.661Z,49.7
2019-05-10T05:03:00.354Z,49.8
2019-05-10T05:04:02.288Z,49.7
2019-05-10T05:05:03.619Z,49.8
2019-05-10T05:06:05.522Z,49.7
2019-05-10T05:07:07.146Z,49.7
2019-05-10T05:08:09.046Z,49.6
2019-05-10T05:09:10.390Z,49.8
2019-05-10T05:10:12.002Z,49.8
2019-05-10T05:11:13.905Z,49.7
2019-05-10T05:12:15.802Z,49.6
2019-05-10T05:13:17.742Z,49.7
2019-05-10T05:14:19.639Z,49.7
2019-05-10T05:15:21.261Z,49.5
2019-05-10T05:16:22.946Z,49.3
2019-05-10T05:17:24.296Z,49.1
2019-05-10T05:18:25.347Z,49.3
2019-05-10T05:19:27.245Z,49.2
2019-05-10T05:20:28.853Z,48.8
2019-05-10T05:21:30.747Z,49.1
2019-05-10T05:22:32.645Z,48.9
2019-05-10T05:23:34.611Z,49
2019-05-10T05:24:35.666Z,48.9
2019-05-10T05:25:41.839Z,49.1
2019-05-10T05:26:43.860Z,48.7
2019-05-10T05:27:45.481Z,49.4
2019-05-10T05:28:47.104Z,49
2019-05-10T05:29:48.727Z,48.8
2019-05-10T05:30:50.624Z,48.8
2019-05-10T05:32:03.405Z,48.9
2019-05-10T05:33:05.141Z,48.8
2019-05-10T05:34:07.037Z,48.7
2019-05-10T05:35:08.664Z,48.8
2019-05-10T05:36:10.285Z,48.8
2019-05-10T05:37:12.184Z,48.5
2019-05-10T05:38:14.082Z,48.6
2019-05-10T05:39:15.984Z,48.6
2019-05-10T05:40:17.309Z,48.8
2019-05-10T05:41:19.207Z,48.5
2019-05-10T05:42:27.839Z,48.8
2019-05-10T05:43:30.621Z,48.7
2019-05-10T05:44:32.562Z,48.8
2019-05-10T05:45:35.870Z,48.5
2019-05-10T05:46:37.762Z,48.5
2019-05-10T05:47:45.106Z,48.5
2019-05-10T05:48:47.149Z,48.6
2019-05-10T05:49:52.864Z,48.8
2019-05-10T05:50:54.779Z,48.7
2019-05-10T05:51:56.444Z,48.4
2019-05-10T05:52:58.495Z,48.6
2019-05-10T05:54:04.473Z,48.6
2019-05-10T05:55:06.644Z,48.6
2019-05-10T05:56:14.588Z,48.7
2019-05-10T05:57:16.384Z,48.7
2019-05-10T05:58:27.556Z,49
2019-05-10T05:59:29.475Z,48.9
2019-05-10T06:00:31.379Z,48.7
2019-05-10T06:01:45.692Z,49
2019-05-10T06:04:31.269Z,48.9
2019-05-10T06:05:37.542Z,49
2019-05-10T06:06:40.000Z,48.8
2019-05-10T06:07:42.134Z,49
2019-05-10T06:08:43.488Z,48.7
2019-05-10T06:09:45.108Z,48.8
2019-05-10T06:10:59.956Z,48.8
2019-05-10T06:12:07.310Z,48.7
2019-05-10T06:13:15.447Z,48.9
2019-05-10T06:14:17.779Z,49
2019-05-10T06:15:28.896Z,49
2019-05-10T06:16:33.176Z,48.9
2019-05-10T06:17:34.805Z,48.9
2019-05-10T06:18:36.440Z,48.9
2019-05-10T06:19:48.467Z,48.9
2019-05-10T06:20:50.093Z,48.8
2019-05-10T06:21:57.839Z,49
2019-05-10T06:23:07.740Z,48.9
2019-05-10T06:24:15.789Z,49
2019-05-10T06:25:17.984Z,48.9
2019-05-10T06:26:39.305Z,48.9
2019-05-10T06:27:43.204Z,48.9
2019-05-10T06:29:03.622Z,48.8
2019-05-10T06:30:18.778Z,48.9
2019-05-10T06:31:20.711Z,48.7
2019-05-10T06:32:22.501Z,49
2019-05-10T06:33:24.116Z,48.8
2019-05-10T06:34:26.024Z,48.8
2019-05-10T06:35:32.983Z,48.8
2019-05-10T06:36:34.922Z,48.8
2019-05-10T06:37:36.818Z,48.9
2019-05-10T06:38:38.445Z,49
2019-05-10T06:39:40.345Z,48.8
2019-05-10T06:40:48.128Z,48.9
2019-05-10T06:41:58.327Z,48.9
2019-05-10T06:43:00.001Z,48.8
2019-05-10T06:44:01.914Z,49.1
2019-05-10T06:45:14.038Z,48.9
2019-05-10T06:46:17.625Z,48.8
2019-05-10T06:47:22.435Z,48.8
2019-05-10T06:48:33.570Z,48.9
2019-05-10T06:49:35.688Z,48.7
2019-05-10T06:50:53.169Z,49
2019-05-10T06:51:55.066Z,48.8
2019-05-10T06:53:10.463Z,49.1
2019-05-10T06:54:12.844Z,48.8
2019-05-10T06:55:14.473Z,49
2019-05-10T06:56:16.102Z,49
2019-05-10T06:57:19.835Z,49
2019-05-10T06:58:21.731Z,49.2
2019-05-10T06:59:26.347Z,48.9
2019-05-10T07:00:27.751Z,48.9
2019-05-10T07:01:29.665Z,48.9
2019-05-10T07:02:33.065Z,48.8
2019-05-10T07:03:34.696Z,49
2019-05-10T07:04:41.497Z,49
2019-05-10T07:05:43.394Z,49
2019-05-10T07:06:45.292Z,48.8
2019-05-10T07:07:46.925Z,49
2019-05-10T07:08:59.171Z,49.1
2019-05-10T07:10:18.536Z,49
2019-05-10T07:11:26.722Z,49
2019-05-10T07:12:30.812Z,48.9
2019-05-10T07:13:32.728Z,48.9
2019-05-10T07:14:33.778Z,48.8
2019-05-10T07:15:44.213Z,48.9
2019-05-10T07:16:46.515Z,49
2019-05-10T07:17:48.140Z,48.9
2019-05-10T07:18:54.688Z,48.9
2019-05-10T07:20:03.259Z,48.8
2019-05-10T07:21:08.714Z,48.9
2019-05-10T07:22:10.817Z,48.9
2019-05-10T07:23:12.338Z,48.9
2019-05-10T07:24:26.880Z,49
2019-05-10T07:25:28.633Z,49
2019-05-10T07:26:30.537Z,49
2019-05-10T07:27:38.546Z,49
2019-05-10T07:28:40.737Z,49
2019-05-10T07:29:46.419Z,49
2019-05-10T07:30:47.748Z,48.8
2019-05-10T07:31:49.374Z,49
2019-05-10T07:32:59.586Z,48.9
2019-05-10T07:34:03.722Z,48.6
2019-05-10T07:35:10.619Z,49
2019-05-10T07:36:20.526Z,48.6
2019-05-10T07:37:31.845Z,48.6
2019-05-10T07:38:33.285Z,48.1
2019-05-10T07:39:34.891Z,48.3
2019-05-10T07:40:36.569Z,48.3
2019-05-10T07:41:38.600Z,48.4
2019-05-10T07:42:47.122Z,48.4
2019-05-10T07:43:49.056Z,48.2
2019-05-10T07:44:50.960Z,48.3
2019-05-10T07:45:58.487Z,48.3
2019-05-10T07:47:10.065Z,48.5
2019-05-10T07:48:12.054Z,48.4
2019-05-10T07:49:14.012Z,48.9
2019-05-10T07:50:15.719Z,49
2019-05-10T07:51:17.504Z,48.9
2019-05-10T07:52:30.019Z,48.9
2019-05-10T07:53:31.716Z,49
2019-05-10T07:54:45.619Z,48.7
2019-05-10T07:55:49.446Z,48.6
2019-05-10T07:56:51.347Z,48.4
2019-05-10T07:57:52.724Z,48.2
2019-05-10T07:59:01.289Z,48.5
2019-05-10T08:00:05.973Z,48.2
2019-05-10T08:01:07.560Z,48.3
2019-05-10T08:02:14.864Z,48.4
2019-05-10T08:03:23.974Z,48.2
2019-05-10T08:04:33.478Z,48.3
2019-05-10T08:05:35.435Z,48.2
2019-05-10T08:06:48.534Z,48.2
2019-05-10T08:07:53.219Z,48.3
2019-05-10T08:09:01.672Z,48.3
2019-05-10T08:10:10.795Z,48.5
2019-05-10T08:11:12.695Z,48.4
2019-05-10T08:12:14.298Z,48.5
2019-05-10T08:13:25.193Z,48.4
2019-05-10T08:14:29.571Z,48.3
2019-05-10T08:15:35.432Z,48.3
2019-05-10T08:16:39.740Z,48.3
2019-05-10T08:17:46.212Z,48.6
2019-05-10T08:19:00.877Z,48.1
2019-05-10T08:20:03.625Z,48.2
2019-05-10T08:21:26.893Z,47.9
2019-05-10T08:22:44.428Z,48.5
2019-05-10T08:23:47.759Z,48.4
2019-05-10T08:24:56.404Z,48
2019-05-10T08:25:58.145Z,48.6
2019-05-10T08:27:14.660Z,48.4
2019-05-10T08:28:17.026Z,48
2019-05-10T08:29:18.381Z,48.4
2019-05-10T08:30:29.385Z,48.1
2019-05-10T08:31:49.012Z,47.9
2019-05-10T08:33:09.595Z,47.9
2019-05-10T08:34:16.089Z,48.5
2019-05-10T08:35:19.124Z,48.5
2019-05-10T08:36:22.479Z,48.4
2019-05-10T08:37:37.669Z,48.4
2019-05-10T08:38:54.323Z,48.5
2019-05-10T08:40:14.392Z,48.6
2019-05-10T08:41:22.854Z,47.9
2019-05-10T08:42:47.962Z,48.6
2019-05-10T08:44:21.206Z,47.8
2019-05-10T08:45:25.007Z,47.9
2019-05-10T08:46:41.334Z,48.1
2019-05-10T08:47:45.330Z,48.8
2019-05-10T08:48:53.995Z,48.1
2019-05-10T08:50:26.265Z,47.9
2019-05-10T08:51:57.787Z,47.9
2019-05-10T08:53:16.049Z,48.8
2019-05-10T08:54:18.311Z,48.7
2019-05-10T08:55:22.453Z,48.1
2019-05-10T08:56:24.604Z,48
2019-05-10T08:57:26.505Z,48.1
2019-05-10T08:58:37.058Z,48.2
2019-05-10T08:59:38.968Z,48
2019-05-10T09:01:11.927Z,48.1
2019-05-10T09:02:33.495Z,48.2
2019-05-10T09:03:34.576Z,48
2019-05-10T09:04:50.132Z,48.4
2019-05-10T09:05:54.280Z,48.3
2019-05-10T09:07:02.642Z,48.3
2019-05-10T09:08:11.491Z,48
2019-05-10T09:09:33.628Z,47.8
2019-05-10T09:10:53.801Z,48.1
2019-05-10T09:12:03.963Z,48.2
2019-05-10T09:13:13.711Z,47.8
2019-05-10T09:14:24.058Z,47.7
2019-05-10T09:15:26.075Z,47.8
2019-05-10T09:16:35.861Z,47.7
2019-05-10T09:18:07.572Z,48.3
2019-05-10T09:19:09.375Z,47.6
2019-05-10T09:20:26.101Z,48.2
2019-05-10T09:21:28.064Z,48
2019-05-10T09:22:38.682Z,47.6
2019-05-10T09:23:39.835Z,48.1
2019-05-10T09:24:49.996Z,47.9
2019-05-10T09:25:54.513Z,47.8
2019-05-10T09:26:57.653Z,47.6
2019-05-10T09:28:11.384Z,47.7
2019-05-10T09:29:17.949Z,47.6
2019-05-10T09:30:21.857Z,47.7
2019-05-10T09:31:26.345Z,47.7
2019-05-10T09:32:31.340Z,47.7
2019-05-10T09:33:34.382Z,47.5
2019-05-10T09:34:35.719Z,47.6
2019-05-10T09:35:44.854Z,47.7
2019-05-10T09:36:56.031Z,47.8
2019-05-10T09:37:58.818Z,47.7
2019-05-10T09:38:59.893Z,47.8
2019-05-10T09:40:12.828Z,47.4
2019-05-10T09:41:15.184Z,47.7
2019-05-10T09:42:33.194Z,47.6
2019-05-10T09:43:51.591Z,47.4
2019-05-10T09:44:55.462Z,47.6
2019-05-10T09:45:57.360Z,47.7
2019-05-10T09:46:59.263Z,47.5
2019-05-10T09:48:05.155Z,47.6
2019-05-10T09:49:18.464Z,47.4
2019-05-10T09:50:19.962Z,47.1
2019-05-10T09:51:30.410Z,46.9
2019-05-10T09:52:34.677Z,47.4
2019-05-10T09:53:38.880Z,47.4
2019-05-10T09:54:40.794Z,47.2
2019-05-10T09:55:52.134Z,47.3
2019-05-10T09:57:04.462Z,46.8
2019-05-10T09:58:08.300Z,47.6
2019-05-10T09:59:10.196Z,47.2
2019-05-10T10:00:11.524Z,46.9
2019-05-10T10:01:21.886Z,47.3
2019-05-10T10:02:33.584Z,47.4
2019-05-10T10:03:44.959Z,47.2
2019-05-10T10:04:49.055Z,47.4
2019-05-10T10:06:05.040Z,47.2
2019-05-10T10:07:12.592Z,47.5
2019-05-10T10:08:14.476Z,47.5
2019-05-10T10:09:18.179Z,47.4
2019-05-10T10:10:32.395Z,47.3
2019-05-10T10:11:34.412Z,47.6
2019-05-10T10:12:37.869Z,47.1
2019-05-10T10:13:50.012Z,47.3
2019-05-10T10:15:03.109Z,46.9
2019-05-10T10:16:14.637Z,47
2019-05-10T10:17:20.734Z,47.1
2019-05-10T10:18:28.246Z,47.2
2019-05-10T10:19:30.322Z,47.3
2019-05-10T10:20:43.655Z,47.2
2019-05-10T10:21:49.216Z,47.1
2019-05-10T10:22:55.047Z,47
2019-05-10T10:24:00.611Z,47.1
2019-05-10T10:25:18.247Z,47.2
2019-05-10T10:26:22.970Z,47
2019-05-10T10:27:34.763Z,47.1
2019-05-10T10:28:40.862Z,47.2
2019-05-10T10:29:42.490Z,47.2
2019-05-10T10:30:44.117Z,47.4
2019-05-10T10:31:59.601Z,47
2019-05-10T10:33:11.157Z,46.9
2019-05-10T10:34:27.819Z,47.2
2019-05-10T10:35:44.240Z,47.1
2019-05-10T10:36:47.922Z,47.2
2019-05-10T10:37:49.567Z,47.1
2019-05-10T10:38:50.922Z,47.1
2019-05-10T10:40:00.406Z,47
2019-05-10T10:41:09.639Z,46.9
2019-05-10T10:42:13.665Z,46.8
2019-05-10T10:43:15.027Z,47.3
2019-05-10T10:44:19.043Z,47.2
2019-05-10T10:45:20.947Z,47.2
2019-05-10T10:46:22.856Z,47.1
2019-05-10T10:47:32.330Z,47.1
2019-05-10T10:48:34.000Z,47.2
2019-05-10T10:49:38.370Z,47.2
2019-05-10T10:50:55.408Z,47.3
2019-05-10T10:52:00.099Z,47.2
2019-05-10T10:53:08.317Z,47.1
2019-05-10T10:54:09.444Z,47.3
2019-05-10T10:55:13.774Z,47.2
2019-05-10T10:56:17.362Z,47.1
2019-05-10T10:57:19.538Z,47.1
2019-05-10T10:58:21.434Z,47.2
2019-05-10T10:59:23.042Z,47.2
2019-05-10T11:00:24.664Z,47.2
2019-05-10T11:01:50.503Z,47.1
2019-05-10T11:03:34.847Z,47.2
2019-05-10T11:04:48.746Z,47.3
2019-05-10T11:05:50.714Z,46.9
2019-05-10T11:07:11.086Z,47.2
2019-05-10T11:08:13.086Z,47.2
2019-05-10T11:09:14.710Z,47.3
2019-05-10T11:10:22.228Z,47
2019-05-10T11:11:23.959Z,47.2
2019-05-10T11:12:38.441Z,47.1
2019-05-10T11:13:57.256Z,47
2019-05-10T11:15:11.068Z,47.1
2019-05-10T11:16:27.586Z,47.2
2019-05-10T11:17:31.307Z,47.1
2019-05-10T11:18:32.923Z,47.1
2019-05-10T11:19:33.989Z,47.3
2019-05-10T11:20:35.889Z,47.3
2019-05-10T11:21:37.514Z,47.2
2019-05-10T11:22:52.971Z,47.1
2019-05-10T11:23:55.028Z,47.3
2019-05-10T11:25:09.367Z,47.3
2019-05-10T11:26:13.662Z,47.4
2019-05-10T11:27:17.709Z,47.2
2019-05-10T11:28:21.179Z,47.2
2019-05-10T11:29:30.606Z,47.2
2019-05-10T11:30:33.181Z,47.2
2019-05-10T11:31:34.531Z,47.1
2019-05-10T11:32:36.431Z,47
2019-05-10T11:33:41.073Z,47.2
2019-05-10T11:34:57.186Z,46.9
2019-05-10T11:36:08.814Z,47
2019-05-10T11:37:14.752Z,47
2019-05-10T11:38:32.545Z,46.8
2019-05-10T11:39:46.804Z,46.9
2019-05-10T11:40:51.436Z,46.8
2019-05-10T11:42:07.073Z,47.1
2019-05-10T11:43:09.038Z,47
2019-05-10T11:44:12.284Z,46.8
2019-05-10T11:45:14.177Z,46.8
2019-05-10T11:46:15.803Z,46.8
2019-05-10T11:47:27.017Z,46.8
2019-05-10T11:48:39.550Z,46.9
2019-05-10T11:49:43.575Z,46.6
2019-05-10T11:50:45.480Z,46.8
2019-05-10T11:51:58.471Z,46.8
2019-05-10T11:53:13.089Z,46.9
2019-05-10T11:54:21.371Z,46.7
2019-05-10T11:55:23.153Z,46.7
2019-05-10T11:56:28.194Z,46.6
2019-05-10T11:57:33.329Z,46.4
2019-05-10T11:58:45.787Z,46.6
2019-05-10T11:59:56.968Z,46.9
2019-05-10T12:03:07.626Z,46.9
2019-05-10T12:08:24.524Z,46.5
2019-05-10T12:09:26.149Z,46.3
2019-05-10T12:10:27.494Z,46.6
2019-05-10T12:13:19.242Z,46.5
2019-05-10T12:14:26.046Z,46.5
2019-05-10T12:15:31.416Z,46.4
2019-05-10T12:16:34.192Z,46.6
2019-05-10T12:17:35.526Z,46.4
2019-05-10T12:18:46.110Z,46.5
2019-05-10T12:22:16.299Z,46.2
2019-05-10T12:25:41.838Z,46.6
2019-05-10T12:28:21.771Z,46.2
2019-05-10T12:29:36.563Z,46.5
2019-05-10T12:30:38.166Z,46.4
2019-05-10T12:31:42.343Z,46.4
2019-05-10T12:33:07.878Z,46.3
2019-05-10T12:34:28.077Z,46.5
2019-05-10T12:35:46.329Z,46.5
2019-05-10T12:36:48.767Z,46.1
2019-05-10T12:37:54.559Z,46.2
2019-05-10T12:38:58.942Z,46.2
2019-05-10T12:40:15.009Z,46.1
2019-05-10T12:41:17.254Z,46.1
2019-05-10T12:42:22.232Z,46.4
2019-05-10T12:43:23.288Z,46.4
2019-05-10T12:44:25.188Z,46
2019-05-10T12:45:27.086Z,46.3
2019-05-10T12:46:31.178Z,46.3
2019-05-10T12:47:34.281Z,45.9
2019-05-10T12:48:36.572Z,46.3
2019-05-10T12:49:38.204Z,46.1
2019-05-10T12:50:44.557Z,46
2019-05-10T12:51:46.454Z,46.2
2019-05-10T12:53:04.574Z,46.4
2019-05-10T12:54:25.480Z,46
2019-05-10T12:55:27.231Z,45.9
2019-05-10T12:56:34.759Z,46.1
2019-05-10T12:57:47.200Z,46
2019-05-10T12:58:59.547Z,45.9
2019-05-10T13:00:01.572Z,46
2019-05-10T13:01:14.243Z,45.7
2019-05-10T13:02:15.866Z,46
2019-05-10T13:03:25.105Z,46
2019-05-10T13:04:41.282Z,45.5
2019-05-10T13:05:54.071Z,45.6
2019-05-10T13:06:55.695Z,45.5
2019-05-10T13:07:57.320Z,45.6
2019-05-10T13:08:58.650Z,45.5
2019-05-10T13:10:08.188Z,45.4
2019-05-10T13:11:11.433Z,45.8
2019-05-10T13:12:12.787Z,45.7
2019-05-10T13:13:23.125Z,45.7
2019-05-10T13:15:03.322Z,45.4
2019-05-10T13:16:12.133Z,45.4
2019-05-10T13:17:17.512Z,45.3
2019-05-10T13:18:48.072Z,45
2019-05-10T13:20:00.578Z,45.2
2019-05-10T13:21:02.631Z,45.4
2019-05-10T13:22:08.444Z,45.4
2019-05-10T13:23:18.456Z,45.3
2019-05-10T13:24:20.499Z,45.1
2019-05-10T13:25:21.848Z,45.4
2019-05-10T13:26:23.750Z,45.7
2019-05-10T13:27:25.648Z,45.2
2019-05-10T13:28:27.095Z,45.2
2019-05-10T13:29:29.103Z,45.5
2019-05-10T13:30:31.002Z,45.3
2019-05-10T13:31:32.643Z,45.3
2019-05-10T13:32:45.499Z,45.1
2019-05-10T13:33:47.124Z,45.2
2019-05-10T13:34:48.752Z,45.4
2019-05-10T13:35:56.344Z,45.1
2019-05-10T13:36:59.880Z,44.9
2019-05-10T13:38:06.440Z,45.2
2019-05-10T13:39:08.486Z,45
2019-05-10T13:40:10.390Z,45.2
2019-05-10T13:41:12.013Z,45.4
2019-05-10T13:42:19.032Z,45.2
2019-05-10T13:43:28.352Z,44.9
2019-05-10T13:44:30.358Z,45.3
2019-05-10T13:45:39.484Z,44.6
2019-05-10T13:46:40.985Z,44.7
2019-05-10T13:47:42.885Z,45
2019-05-10T13:48:44.521Z,44.9
2019-05-10T13:49:49.502Z,44.8
2019-05-10T13:50:51.176Z,44.7
2019-05-10T13:51:53.087Z,44.8
2019-05-10T13:52:54.986Z,44.4
2019-05-10T13:54:00.885Z,44.6
2019-05-10T13:55:06.553Z,44.5
2019-05-10T13:56:08.185Z,44.7
2019-05-10T13:57:09.812Z,44.6
2019-05-10T13:58:11.439Z,44.6
2019-05-10T13:59:18.445Z,44.5
2019-05-10T14:00:20.101Z,45
2019-05-10T14:01:22.008Z,44.3
2019-05-10T14:02:34.802Z,44.8
2019-05-10T14:03:49.646Z,44.8
2019-05-10T14:05:04.387Z,44.5
2019-05-10T14:06:05.989Z,44.5
2019-05-10T14:07:07.041Z,44.5
2019-05-10T14:08:08.396Z,44.5
2019-05-10T14:09:10.380Z,44.8
2019-05-10T14:10:12.001Z,44.8
2019-05-10T14:11:24.602Z,45.1
2019-05-10T14:12:26.236Z,44.8
2019-05-10T14:13:28.127Z,45
2019-05-10T14:14:29.726Z,44.7
2019-05-10T14:15:31.626Z,45.2
2019-05-10T14:16:32.956Z,45.1
2019-05-10T14:17:34.582Z,45
2019-05-10T14:18:36.482Z,44.9
2019-05-10T14:19:38.113Z,44.8
2019-05-10T14:20:40.015Z,44.9
2019-05-10T14:21:41.913Z,44.4
2019-05-10T14:22:58.326Z,45
2019-05-10T14:24:00.616Z,44.9
2019-05-10T14:25:02.514Z,44.9
2019-05-10T14:26:09.075Z,44.9
2019-05-10T14:27:19.307Z,44.8
2019-05-10T14:28:21.229Z,44.8
2019-05-10T14:29:36.519Z,44.5
2019-05-10T14:30:38.354Z,44.9
2019-05-10T14:31:40.303Z,44.5
2019-05-10T14:32:41.646Z,44.6
2019-05-10T14:34:15.082Z,44.5
2019-05-10T14:35:24.487Z,44.5
2019-05-10T14:36:26.202Z,44.4
2019-05-10T14:37:28.099Z,44.7
2019-05-10T14:38:30.021Z,44.5
2019-05-10T14:39:31.348Z,44.5
2019-05-10T14:40:33.250Z,44.6
2019-05-10T14:41:35.156Z,44.6
2019-05-10T14:42:40.523Z,44.6
2019-05-10T14:43:42.434Z,44.6
2019-05-10T14:44:44.363Z,44.7